Terminal Aerodrome Forecast
Issued by NWS Medford, OR

Home | Current Version | Previous Version | Text Only | Print | Product List | Glossary On
Versions: 1 2 3 4 5 6 7 8 9 10 11 12 13 14 15 16 17 18 19 20 21 22 23 24 25 26 27
000
FTUS46 KMFR 201231 AAA
TAFMFR
TAF AMD
KMFR 201231Z 2013/2112 14005KT 6SM -RA BR SCT005 OVC040
      WS020/22040KT
      TEMPO 2013/2015 3SM -RA BR BKN005 OVC050
     FM201600 13005KT 3SM -RA BR SCT007 BKN015 OVC035 WS020/23040KT
     FM202100 VRB04KT 6SM -RA BR BKN015 BKN025 OVC040=

USA.gov is the U.S. government's official web portal to all federal, state and local government web resources and services.